地図

経路データ

SID SEASON NUMBER BASIN SUBBASIN NAME ISO_TIME NATURE LAT LON WMO_WIND WMO_PRES WMO_AGENCY TRACK_TYPE DIST2LAND LANDFALL IFLAG USA_AGENCY USA_ATCF_ID USA_LAT USA_LON USA_RECORD USA_STATUS USA_WIND USA_PRES USA_SSHS USA_R34_NE USA_R34_SE USA_R34_SW USA_R34_NW USA_R50_NE USA_R50_SE USA_R50_SW USA_R50_NW USA_R64_NE USA_R64_SE USA_R64_SW USA_R64_NW USA_POCI USA_ROCI USA_RMW USA_EYE TOKYO_LAT TOKYO_LON TOKYO_GRADE TOKYO_WIND TOKYO_PRES TOKYO_R50_DIR TOKYO_R50_LONG TOKYO_R50_SHORT TOKYO_R30_DIR TOKYO_R30_LONG TOKYO_R30_SHORT TOKYO_LAND CMA_LAT CMA_LON CMA_CAT CMA_WIND CMA_PRES HKO_LAT HKO_LON HKO_CAT HKO_WIND HKO_PRES NEWDELHI_LAT NEWDELHI_LON NEWDELHI_GRADE NEWDELHI_WIND NEWDELHI_PRES NEWDELHI_CI NEWDELHI_DP NEWDELHI_POCI REUNION_LAT REUNION_LON REUNION_TYPE REUNION_WIND REUNION_PRES REUNION_TNUM REUNION_CI REUNION_RMW REUNION_R34_NE REUNION_R34_SE REUNION_R34_SW REUNION_R34_NW REUNION_R50_NE REUNION_R50_SE REUNION_R50_SW REUNION_R50_NW REUNION_R64_NE REUNION_R64_SE REUNION_R64_SW REUNION_R64_NW BOM_LAT BOM_LON BOM_TYPE BOM_WIND BOM_PRES BOM_TNUM BOM_CI BOM_RMW BOM_R34_NE BOM_R34_SE BOM_R34_SW BOM_R34_NW BOM_R50_NE BOM_R50_SE BOM_R50_SW BOM_R50_NW BOM_R64_NE BOM_R64_SE BOM_R64_SW BOM_R64_NW BOM_ROCI BOM_POCI BOM_EYE BOM_POS_METHOD BOM_PRES_METHOD NADI_LAT NADI_LON NADI_CAT NADI_WIND NADI_PRES WELLINGTON_LAT WELLINGTON_LON WELLINGTON_WIND WELLINGTON_PRES DS824_LAT DS824_LON DS824_STAGE DS824_WIND DS824_PRES TD9636_LAT TD9636_LON TD9636_STAGE TD9636_WIND TD9636_PRES TD9635_LAT TD9635_LON TD9635_WIND TD9635_PRES TD9635_ROCI NEUMANN_LAT NEUMANN_LON NEUMANN_CLASS NEUMANN_WIND NEUMANN_PRES MLC_LAT MLC_LON MLC_CLASS MLC_WIND MLC_PRES USA_GUST BOM_GUST BOM_GUST_PER REUNION_GUST REUNION_GUST_PER USA_SEAHGT USA_SEARAD_NE USA_SEARAD_SE USA_SEARAD_SW USA_SEARAD_NW STORM_SPEED STORM_DIR
1982164N08237 1982 34 EP MM NOT_NAMED 1982-06-13 00:00:00 NR 8.00000 -123.500 main 2204 2203 O_____________ jtwc_ep EP031982 8.00000 -123.500 25 -1 7 294
1982164N08237 1982 34 EP MM NOT_NAMED 1982-06-13 03:00:00 NR 8.14006 -123.810 main 2217 2208 P_____________ EP031982 8.14006 -123.810 25 -1 7 297
1982164N08237 1982 34 EP MM NOT_NAMED 1982-06-13 06:00:00 NR 8.30000 -124.100 main 2221 2219 O_____________ jtwc_ep EP031982 8.30000 -124.100 25 -1 6 303
1982164N08237 1982 34 EP MM NOT_NAMED 1982-06-13 09:00:00 NR 8.49247 -124.358 main 2226 2217 P_____________ EP031982 8.49247 -124.358 25 -1 6 309
1982164N08237 1982 34 EP MM NOT_NAMED 1982-06-13 12:00:00 NR 8.70000 -124.600 main 2225 2222 O_____________ jtwc_ep EP031982 8.70000 -124.600 25 -1 7 309
1982164N08237 1982 34 EP MM NOT_NAMED 1982-06-13 15:00:00 NR 8.90002 -124.872 main 2228 2219 P_____________ EP031982 8.90002 -124.872 25 -1 6 309
1982164N08237 1982 34 EP MM NOT_NAMED 1982-06-13 18:00:00 NR 9.10000 -125.100 main 2223 2212 O_____________ jtwc_ep EP031982 9.10000 -125.100 25 -1 5 316
1982164N08237 1982 34 EP MM NOT_NAMED 1982-06-13 21:00:00 NR 9.28498 -125.252 main 2219 2201 P_____________ EP031982 9.28498 -125.252 25 -1 4 334
1982164N08237 1982 34 EP MM NOT_NAMED 1982-06-14 00:00:00 NR 9.50000 -125.300 main 2201 2168 O_____________ jtwc_ep EP031982 9.50000 -125.300 25 -1 5 1
1982164N08237 1982 34 EP MM NOT_NAMED 1982-06-14 03:00:00 NR 9.77750 -125.238 main 2168 2134 P_____________ EP031982 9.77750 -125.238 25 -1 6 18
1982164N08237 1982 34 EP MM NOT_NAMED 1982-06-14 06:00:00 NR 10.1000 -125.100 main 2134 2101 O_____________ jtwc_ep EP031982 10.1000 -125.100 25 -1 7 22
1982164N08237 1982 34 EP MM NOT_NAMED 1982-06-14 09:00:00 NR 10.4575 -124.958 main 2093 2053 P_____________ EP031982 10.4575 -124.958 25 -1 8 23
1982164N08237 1982 34 EP MM NOT_NAMED 1982-06-14 12:00:00 NR 10.8000 -124.800 main 2053 2020 O_____________ jtwc_ep EP031982 10.8000 -124.800 25 -1 7 26
1982164N08237 1982 34 EP MM NOT_NAMED 1982-06-14 15:00:00 NR 11.0650 -124.650 main 2013 1989 P_____________ EP031982 11.0650 -124.650 25 -1 6 30
1982164N08237 1982 34 EP MM NOT_NAMED 1982-06-14 18:00:00 NR 11.3000 -124.500 main 1989 1964 O_____________ jtwc_ep EP031982 11.3000 -124.500 25 -1 6 32
1982164N08237 1982 34 EP MM NOT_NAMED 1982-06-14 21:00:00 NR 11.5425 -124.342 main 1957 1925 P_____________ EP031982 11.5425 -124.342 25 -1 6 30
1982164N08237 1982 34 EP MM NOT_NAMED 1982-06-15 00:00:00 NR 11.8000 -124.200 main 1925 1892 O_____________ jtwc_ep EP031982 11.8000 -124.200 25 -1 6 25
1982164N08237 1982 34 EP MM NOT_NAMED 1982-06-15 03:00:00 NR 12.0925 -124.085 main 1892 1859 P_____________ EP031982 12.0925 -124.085 25 -1 6 18
1982164N08237 1982 34 EP MM NOT_NAMED 1982-06-15 06:00:00 NR 12.4000 -124.000 main 1859 1827 O_____________ jtwc_ep EP031982 12.4000 -124.000 25 -1 6 13
1982164N08237 1982 34 EP MM NOT_NAMED 1982-06-15 09:00:00 NR 12.7025 -123.943 main 1827 1801 P_____________ EP031982 12.7025 -123.943 25 -1 6 9
1982164N08237 1982 34 EP MM NOT_NAMED 1982-06-15 12:00:00 NR 13.0000 -123.900 main 1801 O_____________ jtwc_ep EP031982 13.0000 -123.900 25 -1 6 9

IBTrACS Databaseについて

本データベースは、米国NOAAが公開する1842年以降の世界の熱帯低気圧のベストトラックデータアーカイブInternational Best Track Archive for Climate Stewardship (IBTrACS)を、ウェブで閲覧しやすい形式に変換したものです。

最終更新日:2021-10-21